sensor_id;sensor_type;location;lat;lon;timestamp;P1;durP1;ratioP1;P2;durP2;ratioP2
11761;SDS011;5938;47.098;15.474;2023-08-30T00:00:48;4.93;;;0.90;;
11761;SDS011;5938;47.098;15.474;2023-08-30T00:04:52;1.00;;;0.90;;
11761;SDS011;5938;47.098;15.474;2023-08-30T00:09:02;2.17;;;1.30;;
11761;SDS011;5938;47.098;15.474;2023-08-30T00:13:05;1.93;;;1.13;;
11761;SDS011;5938;47.098;15.474;2023-08-30T00:17:09;2.03;;;0.90;;
11761;SDS011;5938;47.098;15.474;2023-08-30T00:21:13;1.00;;;0.90;;
11761;SDS011;5938;47.098;15.474;2023-08-30T00:25:19;0.97;;;0.80;;
11761;SDS011;5938;47.098;15.474;2023-08-30T00:29:23;3.03;;;1.10;;
11761;SDS011;5938;47.098;15.474;2023-08-30T00:33:26;1.50;;;0.80;;
11761;SDS011;5938;47.098;15.474;2023-08-30T00:37:29;2.00;;;0.90;;
11761;SDS011;5938;47.098;15.474;2023-08-30T00:41:35;2.63;;;1.23;;
11761;SDS011;5938;47.098;15.474;2023-08-30T00:45:38;3.50;;;1.20;;
11761;SDS011;5938;47.098;15.474;2023-08-30T00:49:43;5.87;;;1.20;;
11761;SDS011;5938;47.098;15.474;2023-08-30T00:53:46;1.27;;;0.90;;
11761;SDS011;5938;47.098;15.474;2023-08-30T00:57:52;2.13;;;1.00;;
11761;SDS011;5938;47.098;15.474;2023-08-30T01:01:56;4.43;;;1.07;;
11761;SDS011;5938;47.098;15.474;2023-08-30T01:06:00;2.53;;;0.93;;
11761;SDS011;5938;47.098;15.474;2023-08-30T01:10:04;1.27;;;1.20;;
11761;SDS011;5938;47.098;15.474;2023-08-30T01:14:14;2.63;;;1.03;;
11761;SDS011;5938;47.098;15.474;2023-08-30T01:18:21;1.73;;;0.90;;
11761;SDS011;5938;47.098;15.474;2023-08-30T01:22:29;2.47;;;0.90;;
11761;SDS011;5938;47.098;15.474;2023-08-30T01:26:42;3.30;;;1.57;;
11761;SDS011;5938;47.098;15.474;2023-08-30T01:30:56;13.17;;;1.07;;
11761;SDS011;5938;47.098;15.474;2023-08-30T01:35:02;3.17;;;1.47;;
11761;SDS011;5938;47.098;15.474;2023-08-30T01:39:07;2.33;;;1.27;;
11761;SDS011;5938;47.098;15.474;2023-08-30T01:43:12;0.70;;;0.60;;
11761;SDS011;5938;47.098;15.474;2023-08-30T01:47:18;3.10;;;1.10;;
11761;SDS011;5938;47.098;15.474;2023-08-30T01:51:22;2.03;;;1.00;;
11761;SDS011;5938;47.098;15.474;2023-08-30T01:55:26;1.63;;;1.30;;
11761;SDS011;5938;47.098;15.474;2023-08-30T01:59:32;2.00;;;1.10;;
11761;SDS011;5938;47.098;15.474;2023-08-30T02:03:39;4.93;;;1.30;;
11761;SDS011;5938;47.098;15.474;2023-08-30T02:07:43;3.20;;;1.10;;
11761;SDS011;5938;47.098;15.474;2023-08-30T02:12:06;1.63;;;1.17;;
11761;SDS011;5938;47.098;15.474;2023-08-30T02:16:16;1.80;;;0.97;;
11761;SDS011;5938;47.098;15.474;2023-08-30T02:20:29;2.97;;;1.07;;
11761;SDS011;5938;47.098;15.474;2023-08-30T02:24:32;1.17;;;0.90;;
11761;SDS011;5938;47.098;15.474;2023-08-30T02:28:36;1.37;;;1.27;;
11761;SDS011;5938;47.098;15.474;2023-08-30T02:32:40;1.83;;;0.70;;
11761;SDS011;5938;47.098;15.474;2023-08-30T02:36:45;2.10;;;0.83;;
11761;SDS011;5938;47.098;15.474;2023-08-30T02:40:48;1.80;;;1.23;;
11761;SDS011;5938;47.098;15.474;2023-08-30T02:44:52;1.13;;;0.97;;
11761;SDS011;5938;47.098;15.474;2023-08-30T02:48:55;1.67;;;0.77;;
11761;SDS011;5938;47.098;15.474;2023-08-30T02:53:00;2.17;;;0.93;;
11761;SDS011;5938;47.098;15.474;2023-08-30T02:57:03;2.33;;;1.07;;
11761;SDS011;5938;47.098;15.474;2023-08-30T03:01:07;1.37;;;1.00;;
11761;SDS011;5938;47.098;15.474;2023-08-30T03:05:14;1.70;;;0.80;;
11761;SDS011;5938;47.098;15.474;2023-08-30T03:09:18;0.83;;;0.63;;
11761;SDS011;5938;47.098;15.474;2023-08-30T03:13:22;1.20;;;1.10;;
11761;SDS011;5938;47.098;15.474;2023-08-30T03:17:25;0.87;;;0.87;;
11761;SDS011;5938;47.098;15.474;2023-08-30T03:21:33;1.10;;;1.00;;
11761;SDS011;5938;47.098;15.474;2023-08-30T03:25:38;4.20;;;1.10;;
11761;SDS011;5938;47.098;15.474;2023-08-30T03:29:41;1.53;;;1.27;;
11761;SDS011;5938;47.098;15.474;2023-08-30T03:33:44;3.27;;;1.60;;
11761;SDS011;5938;47.098;15.474;2023-08-30T03:37:48;2.87;;;1.00;;
11761;SDS011;5938;47.098;15.474;2023-08-30T03:41:53;1.80;;;0.80;;
11761;SDS011;5938;47.098;15.474;2023-08-30T03:45:57;1.03;;;0.90;;
11761;SDS011;5938;47.098;15.474;2023-08-30T03:50:02;1.90;;;1.30;;
11761;SDS011;5938;47.098;15.474;2023-08-30T03:54:05;1.53;;;0.97;;
11761;SDS011;5938;47.098;15.474;2023-08-30T03:58:11;1.57;;;0.80;;
11761;SDS011;5938;47.098;15.474;2023-08-30T04:02:15;2.10;;;1.80;;
11761;SDS011;5938;47.098;15.474;2023-08-30T04:06:18;2.23;;;1.07;;
11761;SDS011;5938;47.098;15.474;2023-08-30T04:10:23;5.00;;;1.70;;
11761;SDS011;5938;47.098;15.474;2023-08-30T04:14:28;1.70;;;1.27;;
11761;SDS011;5938;47.098;15.474;2023-08-30T04:18:32;4.77;;;1.03;;
11761;SDS011;5938;47.098;15.474;2023-08-30T04:22:36;0.80;;;0.80;;
11761;SDS011;5938;47.098;15.474;2023-08-30T04:26:39;2.20;;;1.17;;
11761;SDS011;5938;47.098;15.474;2023-08-30T04:30:44;0.90;;;0.90;;
11761;SDS011;5938;47.098;15.474;2023-08-30T04:34:48;3.27;;;0.90;;
11761;SDS011;5938;47.098;15.474;2023-08-30T04:38:52;1.80;;;1.13;;
11761;SDS011;5938;47.098;15.474;2023-08-30T04:43:03;1.30;;;1.07;;
11761;SDS011;5938;47.098;15.474;2023-08-30T04:47:08;3.47;;;1.80;;
11761;SDS011;5938;47.098;15.474;2023-08-30T04:51:11;3.70;;;1.17;;
11761;SDS011;5938;47.098;15.474;2023-08-30T04:55:15;3.30;;;1.50;;
11761;SDS011;5938;47.098;15.474;2023-08-30T04:59:19;2.00;;;1.63;;
11761;SDS011;5938;47.098;15.474;2023-08-30T05:03:26;1.53;;;1.43;;
11761;SDS011;5938;47.098;15.474;2023-08-30T05:07:34;1.23;;;1.13;;
11761;SDS011;5938;47.098;15.474;2023-08-30T05:11:46;3.57;;;1.50;;
11761;SDS011;5938;47.098;15.474;2023-08-30T05:15:50;1.93;;;1.40;;
11761;SDS011;5938;47.098;15.474;2023-08-30T05:19:57;2.07;;;1.60;;
11761;SDS011;5938;47.098;15.474;2023-08-30T05:24:01;2.43;;;1.40;;
11761;SDS011;5938;47.098;15.474;2023-08-30T05:28:07;3.13;;;2.03;;
11761;SDS011;5938;47.098;15.474;2023-08-30T05:32:11;1.67;;;1.40;;
11761;SDS011;5938;47.098;15.474;2023-08-30T05:40:42;2.00;;;1.60;;
11761;SDS011;5938;47.098;15.474;2023-08-30T05:44:46;6.90;;;2.33;;
11761;SDS011;5938;47.098;15.474;2023-08-30T05:48:49;3.07;;;1.90;;
11761;SDS011;5938;47.098;15.474;2023-08-30T05:52:54;2.07;;;1.87;;
11761;SDS011;5938;47.098;15.474;2023-08-30T05:56:59;2.00;;;1.47;;
11761;SDS011;5938;47.098;15.474;2023-08-30T06:01:02;2.27;;;1.63;;
11761;SDS011;5938;47.098;15.474;2023-08-30T06:05:08;5.90;;;1.20;;
11761;SDS011;5938;47.098;15.474;2023-08-30T06:09:12;2.40;;;1.60;;
11761;SDS011;5938;47.098;15.474;2023-08-30T06:13:16;2.47;;;1.00;;
11761;SDS011;5938;47.098;15.474;2023-08-30T06:17:20;1.67;;;1.23;;
11761;SDS011;5938;47.098;15.474;2023-08-30T06:21:24;3.70;;;1.50;;
11761;SDS011;5938;47.098;15.474;2023-08-30T06:25:27;1.10;;;1.00;;
11761;SDS011;5938;47.098;15.474;2023-08-30T06:29:32;2.70;;;1.20;;
11761;SDS011;5938;47.098;15.474;2023-08-30T06:33:36;1.47;;;1.30;;
11761;SDS011;5938;47.098;15.474;2023-08-30T06:37:40;1.20;;;1.10;;
11761;SDS011;5938;47.098;15.474;2023-08-30T06:41:43;1.90;;;1.13;;
11761;SDS011;5938;47.098;15.474;2023-08-30T06:45:48;1.90;;;1.23;;
11761;SDS011;5938;47.098;15.474;2023-08-30T06:49:52;0.93;;;0.83;;
11761;SDS011;5938;47.098;15.474;2023-08-30T06:53:55;1.93;;;0.73;;
11761;SDS011;5938;47.098;15.474;2023-08-30T06:58:02;2.00;;;0.90;;
11761;SDS011;5938;47.098;15.474;2023-08-30T07:02:07;2.03;;;1.00;;
11761;SDS011;5938;47.098;15.474;2023-08-30T07:06:11;2.77;;;0.87;;
11761;SDS011;5938;47.098;15.474;2023-08-30T07:10:14;2.40;;;1.10;;
11761;SDS011;5938;47.098;15.474;2023-08-30T07:14:18;0.57;;;0.57;;
11761;SDS011;5938;47.098;15.474;2023-08-30T07:18:23;0.90;;;0.80;;
11761;SDS011;5938;47.098;15.474;2023-08-30T07:22:26;0.83;;;0.60;;
11761;SDS011;5938;47.098;15.474;2023-08-30T07:26:30;2.53;;;1.00;;
11761;SDS011;5938;47.098;15.474;2023-08-30T07:30:33;1.50;;;0.60;;
11761;SDS011;5938;47.098;15.474;2023-08-30T07:34:39;0.93;;;0.90;;
11761;SDS011;5938;47.098;15.474;2023-08-30T07:38:43;1.07;;;0.97;;
11761;SDS011;5938;47.098;15.474;2023-08-30T07:42:46;3.27;;;1.30;;
11761;SDS011;5938;47.098;15.474;2023-08-30T07:46:49;3.57;;;1.23;;
11761;SDS011;5938;47.098;15.474;2023-08-30T07:50:54;1.13;;;0.77;;
11761;SDS011;5938;47.098;15.474;2023-08-30T07:54:58;2.40;;;0.90;;
11761;SDS011;5938;47.098;15.474;2023-08-30T07:59:01;1.20;;;0.73;;
11761;SDS011;5938;47.098;15.474;2023-08-30T08:03:05;0.70;;;0.60;;
11761;SDS011;5938;47.098;15.474;2023-08-30T08:07:25;1.50;;;0.70;;
11761;SDS011;5938;47.098;15.474;2023-08-30T08:11:29;1.70;;;0.63;;
11761;SDS011;5938;47.098;15.474;2023-08-30T08:15:33;1.70;;;0.83;;
11761;SDS011;5938;47.098;15.474;2023-08-30T08:19:36;1.87;;;1.10;;
11761;SDS011;5938;47.098;15.474;2023-08-30T08:23:42;1.00;;;0.90;;
11761;SDS011;5938;47.098;15.474;2023-08-30T08:27:47;1.80;;;0.90;;
11761;SDS011;5938;47.098;15.474;2023-08-30T08:31:50;1.90;;;1.07;;
11761;SDS011;5938;47.098;15.474;2023-08-30T08:35:54;2.53;;;1.07;;
11761;SDS011;5938;47.098;15.474;2023-08-30T08:39:59;1.87;;;1.03;;
11761;SDS011;5938;47.098;15.474;2023-08-30T08:44:11;2.13;;;1.30;;
11761;SDS011;5938;47.098;15.474;2023-08-30T08:48:16;3.27;;;2.13;;
11761;SDS011;5938;47.098;15.474;2023-08-30T08:52:19;1.00;;;1.00;;
11761;SDS011;5938;47.098;15.474;2023-08-30T08:56:36;3.93;;;1.37;;
11761;SDS011;5938;47.098;15.474;2023-08-30T09:00:40;1.03;;;0.93;;
11761;SDS011;5938;47.098;15.474;2023-08-30T09:04:45;1.73;;;1.60;;
11761;SDS011;5938;47.098;15.474;2023-08-30T09:08:48;1.30;;;1.00;;
11761;SDS011;5938;47.098;15.474;2023-08-30T09:12:53;2.57;;;1.10;;
11761;SDS011;5938;47.098;15.474;2023-08-30T09:16:58;4.13;;;1.80;;
11761;SDS011;5938;47.098;15.474;2023-08-30T09:21:06;2.03;;;1.20;;
11761;SDS011;5938;47.098;15.474;2023-08-30T09:25:10;3.60;;;1.33;;
11761;SDS011;5938;47.098;15.474;2023-08-30T09:29:26;1.97;;;1.17;;
11761;SDS011;5938;47.098;15.474;2023-08-30T09:33:30;4.40;;;1.40;;
11761;SDS011;5938;47.098;15.474;2023-08-30T09:37:37;1.57;;;0.77;;
11761;SDS011;5938;47.098;15.474;2023-08-30T09:41:46;1.73;;;1.23;;
11761;SDS011;5938;47.098;15.474;2023-08-30T09:45:54;3.63;;;1.00;;
11761;SDS011;5938;47.098;15.474;2023-08-30T09:49:58;1.20;;;0.90;;
11761;SDS011;5938;47.098;15.474;2023-08-30T09:54:04;1.70;;;1.20;;
11761;SDS011;5938;47.098;15.474;2023-08-30T09:58:23;1.63;;;1.00;;
11761;SDS011;5938;47.098;15.474;2023-08-30T10:02:32;1.00;;;0.90;;
11761;SDS011;5938;47.098;15.474;2023-08-30T10:07:06;1.37;;;1.00;;
11761;SDS011;5938;47.098;15.474;2023-08-30T10:11:42;1.23;;;0.60;;
11761;SDS011;5938;47.098;15.474;2023-08-30T10:21:00;1.17;;;0.87;;
11761;SDS011;5938;47.098;15.474;2023-08-30T10:25:09;2.13;;;0.80;;
11761;SDS011;5938;47.098;15.474;2023-08-30T10:29:19;1.80;;;0.80;;
11761;SDS011;5938;47.098;15.474;2023-08-30T10:33:26;1.77;;;0.83;;
11761;SDS011;5938;47.098;15.474;2023-08-30T10:37:31;1.77;;;0.77;;
11761;SDS011;5938;47.098;15.474;2023-08-30T10:41:38;0.70;;;0.60;;
11761;SDS011;5938;47.098;15.474;2023-08-30T10:45:58;2.80;;;0.70;;
11761;SDS011;5938;47.098;15.474;2023-08-30T10:50:04;2.13;;;1.00;;
11761;SDS011;5938;47.098;15.474;2023-08-30T10:54:13;0.90;;;0.80;;
11761;SDS011;5938;47.098;15.474;2023-08-30T10:58:18;0.93;;;0.83;;
11761;SDS011;5938;47.098;15.474;2023-08-30T11:02:22;1.03;;;0.80;;
11761;SDS011;5938;47.098;15.474;2023-08-30T11:06:28;0.80;;;0.80;;
11761;SDS011;5938;47.098;15.474;2023-08-30T11:10:33;0.80;;;0.60;;
11761;SDS011;5938;47.098;15.474;2023-08-30T11:14:36;0.80;;;0.63;;
11761;SDS011;5938;47.098;15.474;2023-08-30T11:18:43;1.13;;;0.80;;
11761;SDS011;5938;47.098;15.474;2023-08-30T11:22:47;1.77;;;0.90;;
11761;SDS011;5938;47.098;15.474;2023-08-30T11:26:55;1.03;;;0.70;;
11761;SDS011;5938;47.098;15.474;2023-08-30T11:30:59;4.53;;;0.90;;
11761;SDS011;5938;47.098;15.474;2023-08-30T11:35:03;1.20;;;0.83;;
11761;SDS011;5938;47.098;15.474;2023-08-30T11:39:07;0.80;;;0.63;;
11761;SDS011;5938;47.098;15.474;2023-08-30T11:43:11;2.10;;;0.93;;
11761;SDS011;5938;47.098;15.474;2023-08-30T11:47:17;2.13;;;0.63;;
11761;SDS011;5938;47.098;15.474;2023-08-30T11:51:21;0.80;;;0.80;;
11761;SDS011;5938;47.098;15.474;2023-08-30T11:55:25;1.40;;;0.67;;
11761;SDS011;5938;47.098;15.474;2023-08-30T11:59:30;2.37;;;0.90;;
11761;SDS011;5938;47.098;15.474;2023-08-30T12:03:38;2.97;;;1.13;;
11761;SDS011;5938;47.098;15.474;2023-08-30T12:07:41;4.83;;;1.20;;
11761;SDS011;5938;47.098;15.474;2023-08-30T12:11:45;2.93;;;0.50;;
11761;SDS011;5938;47.098;15.474;2023-08-30T12:15:49;1.80;;;0.80;;
11761;SDS011;5938;47.098;15.474;2023-08-30T12:19:56;1.37;;;0.90;;
11761;SDS011;5938;47.098;15.474;2023-08-30T12:24:00;0.77;;;0.70;;
11761;SDS011;5938;47.098;15.474;2023-08-30T12:28:06;1.23;;;0.67;;
11761;SDS011;5938;47.098;15.474;2023-08-30T12:32:11;0.70;;;0.70;;
11761;SDS011;5938;47.098;15.474;2023-08-30T12:36:16;1.47;;;0.50;;
11761;SDS011;5938;47.098;15.474;2023-08-30T12:40:19;1.90;;;0.67;;
11761;SDS011;5938;47.098;15.474;2023-08-30T12:44:23;1.37;;;0.90;;
11761;SDS011;5938;47.098;15.474;2023-08-30T12:48:32;1.10;;;0.83;;
11761;SDS011;5938;47.098;15.474;2023-08-30T12:52:35;0.60;;;0.53;;
11761;SDS011;5938;47.098;15.474;2023-08-30T12:56:39;1.00;;;0.73;;
11761;SDS011;5938;47.098;15.474;2023-08-30T13:00:42;1.50;;;0.90;;
11761;SDS011;5938;47.098;15.474;2023-08-30T13:04:48;0.83;;;0.83;;
11761;SDS011;5938;47.098;15.474;2023-08-30T13:08:52;3.07;;;0.97;;
11761;SDS011;5938;47.098;15.474;2023-08-30T13:12:56;1.43;;;1.33;;
11761;SDS011;5938;47.098;15.474;2023-08-30T13:17:03;6.90;;;1.20;;
11761;SDS011;5938;47.098;15.474;2023-08-30T13:21:08;1.70;;;1.07;;
11761;SDS011;5938;47.098;15.474;2023-08-30T13:25:13;0.90;;;0.80;;
11761;SDS011;5938;47.098;15.474;2023-08-30T13:29:18;3.33;;;1.20;;
11761;SDS011;5938;47.098;15.474;2023-08-30T13:33:22;1.67;;;1.20;;
11761;SDS011;5938;47.098;15.474;2023-08-30T13:37:31;2.80;;;2.10;;
11761;SDS011;5938;47.098;15.474;2023-08-30T13:41:37;1.37;;;1.10;;
11761;SDS011;5938;47.098;15.474;2023-08-30T13:45:42;3.87;;;1.33;;
11761;SDS011;5938;47.098;15.474;2023-08-30T13:49:48;2.00;;;1.00;;
11761;SDS011;5938;47.098;15.474;2023-08-30T13:53:55;1.87;;;1.10;;
11761;SDS011;5938;47.098;15.474;2023-08-30T13:58:00;1.57;;;1.30;;
11761;SDS011;5938;47.098;15.474;2023-08-30T14:02:04;1.43;;;0.97;;
11761;SDS011;5938;47.098;15.474;2023-08-30T14:06:09;0.90;;;0.87;;
11761;SDS011;5938;47.098;15.474;2023-08-30T14:10:14;1.63;;;0.70;;
11761;SDS011;5938;47.098;15.474;2023-08-30T14:14:22;2.40;;;1.40;;
11761;SDS011;5938;47.098;15.474;2023-08-30T14:18:25;1.23;;;1.13;;
11761;SDS011;5938;47.098;15.474;2023-08-30T14:22:30;0.80;;;0.80;;
11761;SDS011;5938;47.098;15.474;2023-08-30T14:26:36;1.27;;;0.80;;
11761;SDS011;5938;47.098;15.474;2023-08-30T14:30:40;1.57;;;1.17;;
11761;SDS011;5938;47.098;15.474;2023-08-30T14:34:45;2.60;;;1.17;;
11761;SDS011;5938;47.098;15.474;2023-08-30T14:38:49;1.80;;;1.40;;
11761;SDS011;5938;47.098;15.474;2023-08-30T14:42:55;1.30;;;1.20;;
11761;SDS011;5938;47.098;15.474;2023-08-30T14:46:59;1.33;;;1.23;;
11761;SDS011;5938;47.098;15.474;2023-08-30T14:51:04;1.50;;;1.40;;
11761;SDS011;5938;47.098;15.474;2023-08-30T14:55:10;1.33;;;1.23;;
11761;SDS011;5938;47.098;15.474;2023-08-30T14:59:16;2.73;;;1.23;;
11761;SDS011;5938;47.098;15.474;2023-08-30T15:03:21;2.83;;;1.23;;
11761;SDS011;5938;47.098;15.474;2023-08-30T15:07:26;1.50;;;1.40;;
11761;SDS011;5938;47.098;15.474;2023-08-30T15:11:34;1.33;;;1.30;;
11761;SDS011;5938;47.098;15.474;2023-08-30T15:15:40;2.07;;;1.80;;
11761;SDS011;5938;47.098;15.474;2023-08-30T15:19:47;2.43;;;1.63;;
11761;SDS011;5938;47.098;15.474;2023-08-30T15:23:54;1.93;;;1.83;;
11761;SDS011;5938;47.098;15.474;2023-08-30T15:28:01;2.40;;;1.83;;
11761;SDS011;5938;47.098;15.474;2023-08-30T15:32:09;2.20;;;1.80;;
11761;SDS011;5938;47.098;15.474;2023-08-30T15:36:17;2.20;;;1.40;;
11761;SDS011;5938;47.098;15.474;2023-08-30T15:40:22;1.57;;;1.47;;
11761;SDS011;5938;47.098;15.474;2023-08-30T15:44:48;2.13;;;1.27;;
11761;SDS011;5938;47.098;15.474;2023-08-30T15:48:56;1.93;;;1.40;;
11761;SDS011;5938;47.098;15.474;2023-08-30T15:53:00;3.00;;;2.43;;
11761;SDS011;5938;47.098;15.474;2023-08-30T15:57:10;1.90;;;1.80;;
11761;SDS011;5938;47.098;15.474;2023-08-30T16:01:54;3.67;;;2.20;;
11761;SDS011;5938;47.098;15.474;2023-08-30T16:06:00;2.00;;;1.87;;
11761;SDS011;5938;47.098;15.474;2023-08-30T16:10:06;1.70;;;1.60;;
11761;SDS011;5938;47.098;15.474;2023-08-30T16:14:12;2.17;;;1.97;;
11761;SDS011;5938;47.098;15.474;2023-08-30T16:18:18;3.50;;;1.80;;
11761;SDS011;5938;47.098;15.474;2023-08-30T16:22:24;1.77;;;1.67;;
11761;SDS011;5938;47.098;15.474;2023-08-30T16:26:29;1.90;;;1.80;;
11761;SDS011;5938;47.098;15.474;2023-08-30T16:30:34;1.80;;;1.70;;
11761;SDS011;5938;47.098;15.474;2023-08-30T16:34:38;1.77;;;1.67;;
11761;SDS011;5938;47.098;15.474;2023-08-30T16:38:45;1.97;;;1.77;;
11761;SDS011;5938;47.098;15.474;2023-08-30T16:42:50;1.70;;;1.60;;
11761;SDS011;5938;47.098;15.474;2023-08-30T16:47:00;2.00;;;1.80;;
11761;SDS011;5938;47.098;15.474;2023-08-30T16:51:05;1.90;;;1.80;;
11761;SDS011;5938;47.098;15.474;2023-08-30T16:55:15;1.40;;;1.30;;
11761;SDS011;5938;47.098;15.474;2023-08-30T16:59:21;3.60;;;1.63;;
11761;SDS011;5938;47.098;15.474;2023-08-30T17:03:25;2.57;;;1.57;;
11761;SDS011;5938;47.098;15.474;2023-08-30T17:07:31;2.17;;;1.50;;
11761;SDS011;5938;47.098;15.474;2023-08-30T17:11:36;2.00;;;1.80;;
11761;SDS011;5938;47.098;15.474;2023-08-30T17:15:46;1.67;;;1.57;;
11761;SDS011;5938;47.098;15.474;2023-08-30T17:19:50;1.83;;;1.73;;
11761;SDS011;5938;47.098;15.474;2023-08-30T17:23:55;2.17;;;2.07;;
11761;SDS011;5938;47.098;15.474;2023-08-30T17:28:05;2.10;;;2.00;;
11761;SDS011;5938;47.098;15.474;2023-08-30T17:32:09;1.80;;;1.70;;
11761;SDS011;5938;47.098;15.474;2023-08-30T17:36:15;1.63;;;1.53;;
11761;SDS011;5938;47.098;15.474;2023-08-30T17:40:23;2.03;;;1.77;;
11761;SDS011;5938;47.098;15.474;2023-08-30T17:44:33;2.23;;;2.03;;
11761;SDS011;5938;47.098;15.474;2023-08-30T17:48:47;2.53;;;2.00;;
11761;SDS011;5938;47.098;15.474;2023-08-30T17:52:52;2.03;;;1.83;;
11761;SDS011;5938;47.098;15.474;2023-08-30T17:57:05;3.10;;;2.47;;
11761;SDS011;5938;47.098;15.474;2023-08-30T18:01:13;3.37;;;2.37;;
11761;SDS011;5938;47.098;15.474;2023-08-30T18:05:19;1.87;;;1.77;;
11761;SDS011;5938;47.098;15.474;2023-08-30T18:09:23;2.03;;;1.93;;
11761;SDS011;5938;47.098;15.474;2023-08-30T18:13:33;2.20;;;1.97;;
11761;SDS011;5938;47.098;15.474;2023-08-30T18:17:39;1.87;;;1.77;;
11761;SDS011;5938;47.098;15.474;2023-08-30T18:21:46;2.10;;;2.00;;
11761;SDS011;5938;47.098;15.474;2023-08-30T18:25:55;2.00;;;1.87;;
11761;SDS011;5938;47.098;15.474;2023-08-30T18:30:01;2.37;;;2.17;;
11761;SDS011;5938;47.098;15.474;2023-08-30T18:34:09;2.63;;;2.40;;
11761;SDS011;5938;47.098;15.474;2023-08-30T18:38:19;4.87;;;2.30;;
11761;SDS011;5938;47.098;15.474;2023-08-30T18:42:24;5.40;;;2.80;;
11761;SDS011;5938;47.098;15.474;2023-08-30T18:46:31;3.50;;;2.40;;
11761;SDS011;5938;47.098;15.474;2023-08-30T18:50:41;2.77;;;2.47;;
11761;SDS011;5938;47.098;15.474;2023-08-30T18:54:52;2.47;;;2.27;;
11761;SDS011;5938;47.098;15.474;2023-08-30T18:59:01;2.57;;;2.10;;
11761;SDS011;5938;47.098;15.474;2023-08-30T19:03:11;3.73;;;2.60;;
11761;SDS011;5938;47.098;15.474;2023-08-30T19:07:21;2.70;;;2.33;;
11761;SDS011;5938;47.098;15.474;2023-08-30T19:11:26;2.43;;;2.23;;
11761;SDS011;5938;47.098;15.474;2023-08-30T19:15:38;2.37;;;2.17;;
11761;SDS011;5938;47.098;15.474;2023-08-30T19:19:44;2.03;;;1.93;;
11761;SDS011;5938;47.098;15.474;2023-08-30T19:23:51;2.10;;;2.00;;
11761;SDS011;5938;47.098;15.474;2023-08-30T19:28:40;3.03;;;2.73;;
11761;SDS011;5938;47.098;15.474;2023-08-30T19:38:09;3.43;;;2.10;;
11761;SDS011;5938;47.098;15.474;2023-08-30T19:42:19;2.40;;;2.20;;
11761;SDS011;5938;47.098;15.474;2023-08-30T19:46:28;3.33;;;2.97;;
11761;SDS011;5938;47.098;15.474;2023-08-30T19:50:34;3.40;;;2.77;;
11761;SDS011;5938;47.098;15.474;2023-08-30T19:54:43;2.47;;;2.27;;
11761;SDS011;5938;47.098;15.474;2023-08-30T19:58:52;3.17;;;2.47;;
11761;SDS011;5938;47.098;15.474;2023-08-30T20:03:01;2.50;;;2.27;;
11761;SDS011;5938;47.098;15.474;2023-08-30T20:07:09;6.77;;;3.10;;
11761;SDS011;5938;47.098;15.474;2023-08-30T20:11:16;3.80;;;3.50;;
11761;SDS011;5938;47.098;15.474;2023-08-30T20:15:29;4.20;;;3.30;;
11761;SDS011;5938;47.098;15.474;2023-08-30T20:19:38;3.07;;;2.60;;
11761;SDS011;5938;47.098;15.474;2023-08-30T20:23:44;3.70;;;3.20;;
11761;SDS011;5938;47.098;15.474;2023-08-30T20:27:51;2.97;;;2.77;;
11761;SDS011;5938;47.098;15.474;2023-08-30T20:32:06;3.20;;;2.90;;
11761;SDS011;5938;47.098;15.474;2023-08-30T20:36:12;2.70;;;2.50;;
11761;SDS011;5938;47.098;15.474;2023-08-30T20:40:24;3.67;;;3.20;;
11761;SDS011;5938;47.098;15.474;2023-08-30T20:44:30;5.03;;;3.07;;
11761;SDS011;5938;47.098;15.474;2023-08-30T20:48:42;3.50;;;3.20;;
11761;SDS011;5938;47.098;15.474;2023-08-30T20:52:48;4.60;;;4.20;;
11761;SDS011;5938;47.098;15.474;2023-08-30T20:56:52;14.03;;;4.70;;
11761;SDS011;5938;47.098;15.474;2023-08-30T21:00:58;4.27;;;3.97;;
11761;SDS011;5938;47.098;15.474;2023-08-30T21:05:06;5.43;;;3.60;;
11761;SDS011;5938;47.098;15.474;2023-08-30T21:09:10;2.80;;;2.60;;
11761;SDS011;5938;47.098;15.474;2023-08-30T21:13:15;3.63;;;3.33;;
11761;SDS011;5938;47.098;15.474;2023-08-30T21:17:20;3.10;;;2.90;;
11761;SDS011;5938;47.098;15.474;2023-08-30T21:21:27;4.07;;;3.63;;
11761;SDS011;5938;47.098;15.474;2023-08-30T21:25:35;6.03;;;4.30;;
11761;SDS011;5938;47.098;15.474;2023-08-30T21:29:40;5.40;;;4.53;;
11761;SDS011;5938;47.098;15.474;2023-08-30T21:33:43;5.27;;;4.77;;
11761;SDS011;5938;47.098;15.474;2023-08-30T21:37:56;5.00;;;4.60;;
11761;SDS011;5938;47.098;15.474;2023-08-30T21:42:00;5.00;;;4.57;;
11761;SDS011;5938;47.098;15.474;2023-08-30T21:46:05;8.23;;;4.60;;
11761;SDS011;5938;47.098;15.474;2023-08-30T21:50:09;4.33;;;3.90;;
11761;SDS011;5938;47.098;15.474;2023-08-30T21:54:14;4.90;;;4.30;;
11761;SDS011;5938;47.098;15.474;2023-08-30T21:58:19;5.10;;;4.70;;
11761;SDS011;5938;47.098;15.474;2023-08-30T22:02:23;5.47;;;4.87;;
11761;SDS011;5938;47.098;15.474;2023-08-30T22:06:27;5.97;;;5.47;;
11761;SDS011;5938;47.098;15.474;2023-08-30T22:10:37;6.03;;;5.30;;
11761;SDS011;5938;47.098;15.474;2023-08-30T22:14:42;7.10;;;6.50;;
11761;SDS011;5938;47.098;15.474;2023-08-30T22:18:50;5.60;;;5.10;;
11761;SDS011;5938;47.098;15.474;2023-08-30T22:22:54;6.73;;;6.13;;
11761;SDS011;5938;47.098;15.474;2023-08-30T22:27:00;7.90;;;6.47;;
11761;SDS011;5938;47.098;15.474;2023-08-30T22:31:04;5.77;;;5.30;;
11761;SDS011;5938;47.098;15.474;2023-08-30T22:35:10;8.33;;;5.47;;
11761;SDS011;5938;47.098;15.474;2023-08-30T22:39:14;6.17;;;5.67;;
11761;SDS011;5938;47.098;15.474;2023-08-30T22:43:20;5.73;;;5.00;;
11761;SDS011;5938;47.098;15.474;2023-08-30T22:47:24;5.40;;;4.67;;
11761;SDS011;5938;47.098;15.474;2023-08-30T22:51:29;4.83;;;4.43;;
11761;SDS011;5938;47.098;15.474;2023-08-30T22:55:48;4.90;;;4.47;;
11761;SDS011;5938;47.098;15.474;2023-08-30T22:59:55;8.33;;;4.23;;
11761;SDS011;5938;47.098;15.474;2023-08-30T23:03:58;3.97;;;3.67;;
11761;SDS011;5938;47.098;15.474;2023-08-30T23:08:05;4.20;;;3.77;;
11761;SDS011;5938;47.098;15.474;2023-08-30T23:12:09;5.73;;;4.30;;
11761;SDS011;5938;47.098;15.474;2023-08-30T23:16:14;4.00;;;3.70;;
11761;SDS011;5938;47.098;15.474;2023-08-30T23:20:19;4.73;;;4.23;;
11761;SDS011;5938;47.098;15.474;2023-08-30T23:24:23;7.00;;;4.17;;
11761;SDS011;5938;47.098;15.474;2023-08-30T23:28:27;4.83;;;4.43;;
11761;SDS011;5938;47.098;15.474;2023-08-30T23:32:37;3.50;;;3.20;;
11761;SDS011;5938;47.098;15.474;2023-08-30T23:36:42;4.17;;;3.80;;
11761;SDS011;5938;47.098;15.474;2023-08-30T23:40:48;6.20;;;4.50;;
11761;SDS011;5938;47.098;15.474;2023-08-30T23:44:56;3.80;;;3.50;;
11761;SDS011;5938;47.098;15.474;2023-08-30T23:49:02;5.90;;;4.20;;
11761;SDS011;5938;47.098;15.474;2023-08-30T23:53:05;4.70;;;4.30;;
11761;SDS011;5938;47.098;15.474;2023-08-30T23:57:10;4.70;;;4.30;;
